createdAt,value
2018-03-06T00:01:41.346Z,43.95
2018-03-06T00:04:07.954Z,40.40
2018-03-06T00:06:34.906Z,44.42
2018-03-06T00:09:01.479Z,42.55
2018-03-06T00:11:28.070Z,43.30
2018-03-06T00:13:54.672Z,39.03
2018-03-06T00:16:21.242Z,42.72
2018-03-06T00:18:47.837Z,40.97
2018-03-06T00:21:14.830Z,44.80
2018-03-06T00:23:41.429Z,44.53
2018-03-06T00:26:08.006Z,40.45
2018-03-06T00:28:34.635Z,42.88
2018-03-06T00:31:01.189Z,39.88
2018-03-06T00:33:28.165Z,41.72
2018-03-06T00:35:55.109Z,42.17
2018-03-06T00:38:22.117Z,44.13
2018-03-06T00:40:48.677Z,43.40
2018-03-06T00:43:15.266Z,42.08
2018-03-06T00:45:42.181Z,40.17
2018-03-06T00:48:08.786Z,41.55
2018-03-06T00:50:35.414Z,39.83
2018-03-06T00:53:02.360Z,41.95
2018-03-06T00:55:29.377Z,43.80
2018-03-06T00:57:55.974Z,42.03
2018-03-06T01:00:22.897Z,44.63
2018-03-06T01:02:49.482Z,43.60
2018-03-06T01:05:16.081Z,39.85
2018-03-06T01:07:42.658Z,38.10
2018-03-06T01:10:09.306Z,42.20
2018-03-06T01:12:35.886Z,44.97
2018-03-06T01:15:02.513Z,44.95
2018-03-06T01:17:29.486Z,41.25
2018-03-06T01:19:56.428Z,43.10
2018-03-06T01:22:23.360Z,38.90
2018-03-06T01:24:50.006Z,43.42
2018-03-06T01:27:16.605Z,41.80
2018-03-06T01:29:43.166Z,43.35
2018-03-06T01:32:09.765Z,43.97
2018-03-06T01:34:36.358Z,44.13
2018-03-06T01:37:02.937Z,43.90
2018-03-06T01:39:29.505Z,41.30
2018-03-06T01:41:56.086Z,43.35
2018-03-06T01:44:22.649Z,44.30
2018-03-06T01:46:49.226Z,44.92
2018-03-06T01:49:15.807Z,45.25
2018-03-06T01:51:54.797Z,45.20
2018-03-06T01:54:21.403Z,45.17
2018-03-06T01:56:47.949Z,45.38
2018-03-06T01:59:14.906Z,44.63
2018-03-06T02:01:41.858Z,44.03
2018-03-06T02:04:08.798Z,43.65
2018-03-06T02:06:35.390Z,43.13
2018-03-06T02:09:02.429Z,43.45
2018-03-06T02:11:29.002Z,46.10
2018-03-06T02:13:55.592Z,47.70
2018-03-06T02:16:22.178Z,46.40
2018-03-06T02:18:49.100Z,46.08
2018-03-06T02:21:15.677Z,43.60
2018-03-06T02:23:42.629Z,44.05
2018-03-06T02:26:09.570Z,44.08
2018-03-06T02:28:36.171Z,48.97
2018-03-06T02:31:02.782Z,44.95
2018-03-06T02:33:29.718Z,46.35
2018-03-06T02:35:56.318Z,43.25
2018-03-06T02:38:22.905Z,45.40
2018-03-06T02:40:49.453Z,44.30
2018-03-06T02:43:16.041Z,37.15
2018-03-06T02:45:42.653Z,48.90
2018-03-06T02:48:09.201Z,44.30
2018-03-06T02:50:35.857Z,44.80
2018-03-06T02:53:02.457Z,43.85
2018-03-06T02:55:29.039Z,42.40
2018-03-06T02:57:55.614Z,46.85
2018-03-06T03:00:22.209Z,44.25
2018-03-06T03:02:48.777Z,38.17
2018-03-06T03:05:15.376Z,46.10
2018-03-06T03:07:41.991Z,43.15
2018-03-06T03:10:08.602Z,43.30
2018-03-06T03:12:35.205Z,41.17
2018-03-06T03:15:02.188Z,43.65
2018-03-06T03:17:28.762Z,45.50
2018-03-06T03:19:55.349Z,45.20
2018-03-06T03:22:21.937Z,44.22
2018-03-06T03:24:48.493Z,44.15
2018-03-06T03:27:15.086Z,41.72
2018-03-06T03:29:41.674Z,39.90
2018-03-06T03:32:08.217Z,44.45
2018-03-06T03:34:34.818Z,45.17
2018-03-06T03:37:01.421Z,43.50
2018-03-06T03:39:27.986Z,42.72
2018-03-06T03:41:54.582Z,43.13
2018-03-06T03:44:21.562Z,45.35
2018-03-06T03:46:48.485Z,46.20
2018-03-06T03:49:15.115Z,41.83
2018-03-06T03:51:41.741Z,42.53
2018-03-06T03:54:08.297Z,45.22
2018-03-06T03:56:34.884Z,36.75
2018-03-06T03:59:01.858Z,38.45
2018-03-06T04:01:28.789Z,44.22
2018-03-06T04:03:55.373Z,41.03
2018-03-06T04:06:21.977Z,42.40
2018-03-06T04:08:48.530Z,44.50
2018-03-06T04:11:15.131Z,40.63
2018-03-06T04:13:41.717Z,42.67
2018-03-06T04:16:08.257Z,42.08
2018-03-06T04:18:34.858Z,43.72
2018-03-06T04:21:01.469Z,43.10
2018-03-06T04:23:28.040Z,43.45
2018-03-06T04:25:55.006Z,42.83
2018-03-06T04:28:21.989Z,45.38
2018-03-06T04:30:48.561Z,42.22
2018-03-06T04:33:15.130Z,40.22
2018-03-06T04:35:41.721Z,45.42
2018-03-06T04:38:08.283Z,46.83
2018-03-06T04:40:34.868Z,40.03
2018-03-06T04:43:01.464Z,43.65
2018-03-06T04:45:28.017Z,41.63
2018-03-06T04:47:54.620Z,42.33
2018-03-06T04:50:21.208Z,43.87
2018-03-06T04:52:47.785Z,42.08
2018-03-06T04:55:14.392Z,39.55
2018-03-06T04:57:41.002Z,43.87
2018-03-06T05:00:07.573Z,40.65
2018-03-06T05:02:34.539Z,46.28
2018-03-06T05:05:01.505Z,43.80
2018-03-06T05:07:28.430Z,42.13
2018-03-06T05:09:55.017Z,44.22
2018-03-06T05:12:21.615Z,43.55
2018-03-06T05:14:48.165Z,44.08
2018-03-06T05:17:14.769Z,39.50
2018-03-06T05:19:41.361Z,39.58
2018-03-06T05:22:07.904Z,45.55
2018-03-06T05:24:34.505Z,44.67
2018-03-06T05:27:01.097Z,46.33
2018-03-06T05:29:27.658Z,46.30
2018-03-06T05:31:54.236Z,43.60
2018-03-06T05:34:21.189Z,47.83
2018-03-06T05:36:48.101Z,43.95
2018-03-06T05:39:14.692Z,47.00
2018-03-06T05:41:41.302Z,44.95
2018-03-06T05:44:07.866Z,45.45
2018-03-06T05:46:34.441Z,41.75
2018-03-06T05:49:01.394Z,44.63
2018-03-06T05:51:28.354Z,46.25
2018-03-06T05:53:54.945Z,46.22
2018-03-06T05:56:21.521Z,44.17
2018-03-06T05:58:48.453Z,45.47
2018-03-06T06:01:15.051Z,43.63
2018-03-06T06:03:42.006Z,45.75
2018-03-06T06:06:08.575Z,44.38
2018-03-06T06:08:35.520Z,42.70
2018-03-06T06:11:02.154Z,42.92
2018-03-06T06:13:29.086Z,46.55
2018-03-06T06:15:55.646Z,43.30
2018-03-06T06:18:22.217Z,45.50
2018-03-06T06:20:48.750Z,46.17
2018-03-06T06:23:15.326Z,41.72
2018-03-06T06:25:42.266Z,42.03
2018-03-06T06:28:08.800Z,46.47
2018-03-06T06:30:35.413Z,38.10
2018-03-06T06:33:02.039Z,40.90
2018-03-06T06:35:28.578Z,46.03
2018-03-06T06:37:55.515Z,46.80
2018-03-06T06:40:22.095Z,44.53
2018-03-06T06:42:48.629Z,46.22
2018-03-06T06:45:15.565Z,44.60
2018-03-06T06:47:42.510Z,42.92
2018-03-06T06:50:09.118Z,42.80
2018-03-06T06:52:35.720Z,44.45
2018-03-06T06:55:02.302Z,45.15
2018-03-06T06:57:28.841Z,44.42
2018-03-06T06:59:55.413Z,45.33
2018-03-06T07:02:21.979Z,43.78
2018-03-06T07:04:48.517Z,44.25
2018-03-06T07:07:15.105Z,42.53
2018-03-06T07:09:42.042Z,46.40
2018-03-06T07:12:08.575Z,46.83
2018-03-06T07:14:35.138Z,41.08
2018-03-06T07:17:01.715Z,44.90
2018-03-06T07:19:28.629Z,46.80
2018-03-06T07:21:55.229Z,43.50
2018-03-06T07:24:21.797Z,39.67
2018-03-06T07:26:48.353Z,47.40
2018-03-06T07:29:14.917Z,42.88
2018-03-06T07:31:41.483Z,39.22
2018-03-06T07:34:08.021Z,50.12
2018-03-06T07:36:34.586Z,48.17
2018-03-06T07:39:01.168Z,47.45
2018-03-06T07:41:27.715Z,49.38
2018-03-06T07:43:54.290Z,43.75
2018-03-06T07:46:20.869Z,45.10
2018-03-06T07:48:47.409Z,44.70
2018-03-06T07:51:14.076Z,47.13
2018-03-06T07:53:41.046Z,49.75
2018-03-06T07:56:07.945Z,48.35
2018-03-06T07:58:34.509Z,48.75
2018-03-06T08:01:01.073Z,47.88
2018-03-06T08:03:27.610Z,47.08
2018-03-06T08:05:54.173Z,47.80
2018-03-06T08:08:20.757Z,50.65
2018-03-06T08:10:47.294Z,51.85
2018-03-06T08:13:13.849Z,49.58
2018-03-06T08:15:40.424Z,48.22
2018-03-06T08:18:06.984Z,50.83
2018-03-06T08:20:33.549Z,49.33
2018-03-06T08:23:00.118Z,50.85
2018-03-06T08:25:27.043Z,51.70
2018-03-06T08:27:53.609Z,48.33
2018-03-06T08:30:20.177Z,50.00
2018-03-06T08:32:47.069Z,50.12
2018-03-06T08:35:13.625Z,50.25
2018-03-06T08:37:40.212Z,48.22
2018-03-06T08:40:07.122Z,50.78
2018-03-06T08:42:33.680Z,51.65
2018-03-06T08:45:00.246Z,52.22
2018-03-06T08:47:26.781Z,53.58
2018-03-06T08:49:53.354Z,51.00
2018-03-06T08:52:19.980Z,51.78
2018-03-06T08:54:46.519Z,52.15
2018-03-06T08:57:13.087Z,52.62
2018-03-06T08:59:39.657Z,53.40
2018-03-06T09:02:06.559Z,51.05
2018-03-06T09:04:33.129Z,52.53
2018-03-06T09:06:59.725Z,53.60
2018-03-06T09:09:26.265Z,49.88
2018-03-06T09:11:53.193Z,51.40
2018-03-06T09:14:19.772Z,53.92
2018-03-06T09:16:46.300Z,52.90
2018-03-06T09:19:13.238Z,55.92
2018-03-06T09:21:39.810Z,51.45
2018-03-06T09:24:06.716Z,53.15
2018-03-06T09:26:33.289Z,55.12
2018-03-06T09:28:59.857Z,53.15
2018-03-06T09:31:26.761Z,53.72
2018-03-06T09:34:00.409Z,50.22
2018-03-06T09:36:26.973Z,54.05
2018-03-06T09:38:53.501Z,51.60
2018-03-06T09:41:20.117Z,53.90
2018-03-06T09:43:46.676Z,51.70
2018-03-06T09:46:13.228Z,51.45
2018-03-06T09:48:39.790Z,50.85
2018-03-06T09:51:06.357Z,51.25
2018-03-06T09:53:33.298Z,51.95
2018-03-06T09:55:59.905Z,52.70
2018-03-06T09:58:26.482Z,54.67
2018-03-06T10:00:53.013Z,53.42
2018-03-06T10:03:19.574Z,51.60
2018-03-06T10:05:46.141Z,53.05
2018-03-06T10:08:12.680Z,51.78
2018-03-06T10:10:39.252Z,53.30
2018-03-06T10:13:06.184Z,53.10
2018-03-06T10:15:32.725Z,51.92
2018-03-06T10:17:59.300Z,52.28
2018-03-06T10:20:26.243Z,49.38
2018-03-06T10:22:52.793Z,51.53
2018-03-06T10:25:19.361Z,51.97
2018-03-06T10:27:46.296Z,54.03
2018-03-06T10:30:12.825Z,55.42
2018-03-06T10:32:39.406Z,56.35
2018-03-06T10:35:06.342Z,55.85
2018-03-06T10:37:32.879Z,59.08
2018-03-06T10:39:59.441Z,58.30
2018-03-06T10:42:26.006Z,56.37
2018-03-06T10:44:52.909Z,54.80
2018-03-06T10:47:19.482Z,54.10
2018-03-06T10:49:46.042Z,53.90
2018-03-06T10:52:12.576Z,52.53
2018-03-06T10:54:40.303Z,56.80
2018-03-06T10:57:07.886Z,56.05
2018-03-06T10:59:34.414Z,54.40
2018-03-06T11:02:02.901Z,57.45
2018-03-06T11:04:29.475Z,59.70
2018-03-06T11:06:56.952Z,59.25
2018-03-06T11:09:23.722Z,55.50
2018-03-06T11:11:50.302Z,58.85
2018-03-06T11:14:17.235Z,54.95
2018-03-06T11:16:43.806Z,53.05
2018-03-06T11:19:10.749Z,59.05
2018-03-06T11:21:37.654Z,56.33
2018-03-06T11:24:04.238Z,55.80
2018-03-06T11:26:31.829Z,56.30
2018-03-06T11:28:58.734Z,56.58
2018-03-06T11:31:25.298Z,55.88
2018-03-06T11:33:51.870Z,58.00
2018-03-06T11:36:18.441Z,56.22
2018-03-06T11:38:45.373Z,53.67
2018-03-06T11:41:11.945Z,54.83
2018-03-06T11:43:38.479Z,56.17
2018-03-06T11:46:05.404Z,56.75
2018-03-06T11:48:31.978Z,52.88
2018-03-06T11:50:58.886Z,55.55
2018-03-06T11:53:25.489Z,56.83
2018-03-06T11:55:52.426Z,57.28
2018-03-06T11:58:18.977Z,53.92
2018-03-06T12:00:45.561Z,58.80
2018-03-06T12:03:12.129Z,57.55
2018-03-06T12:05:38.664Z,56.92
2018-03-06T12:08:05.246Z,54.10
2018-03-06T12:10:31.836Z,56.10
2018-03-06T12:12:58.744Z,57.13
2018-03-06T12:15:25.317Z,57.72
2018-03-06T12:17:51.882Z,57.28
2018-03-06T12:20:18.785Z,53.78
2018-03-06T12:22:45.346Z,58.20
2018-03-06T12:25:11.921Z,57.30
2018-03-06T12:27:38.454Z,60.15
2018-03-06T12:30:05.105Z,56.80
2018-03-06T12:32:31.658Z,55.90
2018-03-06T12:34:58.192Z,58.42
2018-03-06T12:37:24.825Z,54.15
2018-03-06T12:39:51.499Z,59.35
2018-03-06T12:42:18.039Z,56.40
2018-03-06T12:44:44.606Z,61.83
2018-03-06T12:47:11.597Z,65.40
2018-03-06T12:49:38.121Z,65.82
2018-03-06T12:52:05.061Z,64.32
2018-03-06T12:54:31.664Z,66.03
2018-03-06T12:56:58.198Z,66.47
2018-03-06T12:59:24.774Z,59.90
2018-03-06T13:01:51.344Z,66.87
2018-03-06T13:04:17.878Z,64.47
2018-03-06T13:06:44.450Z,62.33
2018-03-06T13:09:11.394Z,67.28
2018-03-06T13:11:38.010Z,66.30
2018-03-06T13:14:04.609Z,66.75
2018-03-06T13:16:31.559Z,70.70
2018-03-06T13:18:58.089Z,72.25
2018-03-06T13:21:24.725Z,69.97
2018-03-06T13:23:51.324Z,63.80
2018-03-06T13:26:17.873Z,69.82
2018-03-06T13:28:44.449Z,65.18
2018-03-06T13:31:11.025Z,65.97
2018-03-06T13:33:37.562Z,66.72
2018-03-06T13:36:04.169Z,67.22
2018-03-06T13:38:30.745Z,68.03
2018-03-06T13:40:57.286Z,65.22
2018-03-06T13:43:23.853Z,66.95
2018-03-06T13:45:50.422Z,64.07
2018-03-06T13:48:16.964Z,66.68
2018-03-06T13:50:43.562Z,57.78
2018-03-06T13:53:10.147Z,65.40
2018-03-06T13:55:36.718Z,61.40
2018-03-06T13:58:03.311Z,63.85
2018-03-06T14:00:29.873Z,60.95
2018-03-06T14:02:56.406Z,65.47
2018-03-06T14:05:22.974Z,61.55
2018-03-06T14:07:49.553Z,61.20
2018-03-06T14:10:16.092Z,57.22
2018-03-06T14:12:42.658Z,59.70
2018-03-06T14:15:09.273Z,62.88
2018-03-06T14:17:36.216Z,61.28
2018-03-06T14:20:02.830Z,62.92
2018-03-06T14:22:29.398Z,58.15
2018-03-06T14:24:55.933Z,60.28
2018-03-06T14:27:22.496Z,57.08
2018-03-06T14:29:49.082Z,57.80
2018-03-06T14:32:15.657Z,58.58
2018-03-06T14:34:42.662Z,57.30
2018-03-06T14:37:09.222Z,58.35
2018-03-06T14:39:35.774Z,58.03
2018-03-06T14:42:02.345Z,57.55
2018-03-06T14:44:29.273Z,57.50
2018-03-06T14:46:55.816Z,56.92
2018-03-06T14:49:22.382Z,56.35
2018-03-06T14:51:48.974Z,56.63
2018-03-06T14:54:15.555Z,55.10
2018-03-06T14:56:42.130Z,57.17
2018-03-06T14:59:09.086Z,56.95
2018-03-06T15:01:35.626Z,52.88
2018-03-06T15:04:02.200Z,57.20
2018-03-06T15:06:29.142Z,59.03
2018-03-06T15:08:55.674Z,56.33
2018-03-06T15:11:22.249Z,55.53
2018-03-06T15:13:49.193Z,53.47
2018-03-06T15:16:15.758Z,55.38
2018-03-06T15:18:42.331Z,54.58
2018-03-06T15:21:08.898Z,54.22
2018-03-06T15:23:35.438Z,54.35
2018-03-06T15:26:02.018Z,52.88
2018-03-06T15:28:28.593Z,55.85
2018-03-06T15:30:55.489Z,54.20
2018-03-06T15:33:22.055Z,57.30
2018-03-06T15:35:48.633Z,55.85
2018-03-06T15:38:15.538Z,51.53
2018-03-06T15:40:42.134Z,56.83
2018-03-06T15:43:09.081Z,55.58
2018-03-06T15:45:35.613Z,57.38
2018-03-06T15:48:02.186Z,57.90
2018-03-06T15:50:29.143Z,56.25
2018-03-06T15:52:56.046Z,57.40
2018-03-06T15:55:22.646Z,60.30
2018-03-06T15:57:49.582Z,58.17
2018-03-06T16:00:16.118Z,55.33
2018-03-06T16:02:42.681Z,60.15
2018-03-06T16:05:09.250Z,58.38
2018-03-06T16:07:36.154Z,59.03
2018-03-06T16:10:02.806Z,61.70
2018-03-06T16:12:29.378Z,68.28
2018-03-06T16:14:55.910Z,63.45
2018-03-06T16:17:22.529Z,70.03
2018-03-06T16:19:49.102Z,65.15
2018-03-06T16:22:15.650Z,61.30
2018-03-06T16:24:42.210Z,66.72
2018-03-06T16:27:08.786Z,64.93
2018-03-06T16:29:35.721Z,56.20
2018-03-06T16:32:02.314Z,59.38
2018-03-06T16:34:28.922Z,56.58
2018-03-06T16:36:55.465Z,62.92
2018-03-06T16:39:22.033Z,62.70
2018-03-06T16:41:48.978Z,56.60
2018-03-06T16:44:15.882Z,59.00
2018-03-06T16:46:42.534Z,61.17
2018-03-06T16:49:09.097Z,56.72
2018-03-06T16:51:35.631Z,60.55
2018-03-06T16:54:02.213Z,63.47
2018-03-06T16:56:28.806Z,66.40
2018-03-06T16:58:55.324Z,59.45
2018-03-06T17:01:22.262Z,60.40
2018-03-06T17:03:48.819Z,59.03
2018-03-06T17:06:15.381Z,55.47
2018-03-06T17:08:42.305Z,47.38
2018-03-06T17:11:08.860Z,47.75
2018-03-06T17:13:35.402Z,62.00
2018-03-06T17:16:01.973Z,58.75
2018-03-06T17:18:28.916Z,63.13
2018-03-06T17:20:55.443Z,54.72
2018-03-06T17:23:22.013Z,53.20
2018-03-06T17:25:48.570Z,50.88
2018-03-06T17:28:15.928Z,50.20
2018-03-06T17:30:42.530Z,53.42
2018-03-06T17:33:09.095Z,64.87
2018-03-06T17:35:35.618Z,63.00
2018-03-06T17:38:02.209Z,64.47
2018-03-06T17:40:28.778Z,61.88
2018-03-06T17:42:55.674Z,62.78
2018-03-06T17:45:22.242Z,59.85
2018-03-06T17:47:48.803Z,54.95
2018-03-06T17:50:15.354Z,57.88
2018-03-06T17:52:42.321Z,61.28
2018-03-06T17:55:09.559Z,58.05
2018-03-06T17:57:36.718Z,59.75
2018-03-06T18:00:04.404Z,61.00
2018-03-06T18:02:31.427Z,57.80
2018-03-06T18:04:57.978Z,51.47
2018-03-06T18:07:24.803Z,64.20
2018-03-06T18:09:51.387Z,56.37
2018-03-06T18:12:17.939Z,61.33
2018-03-06T18:14:44.530Z,59.03
2018-03-06T18:17:11.098Z,58.92
2018-03-06T18:19:37.710Z,64.30
2018-03-06T18:22:04.674Z,66.10
2018-03-06T18:24:31.622Z,60.53
2018-03-06T18:26:58.153Z,53.67
2018-03-06T18:29:24.946Z,61.83
2018-03-06T18:31:51.930Z,62.58
2018-03-06T18:34:18.470Z,61.55
2018-03-06T18:36:45.164Z,62.33
2018-03-06T18:39:15.345Z,63.75
2018-03-06T18:41:41.949Z,53.83
2018-03-06T18:44:08.532Z,58.33
2018-03-06T18:46:35.474Z,70.03
2018-03-06T18:49:02.402Z,58.75
2018-03-06T18:51:28.981Z,69.25
2018-03-06T18:53:56.322Z,59.53
2018-03-06T18:56:25.463Z,64.07
2018-03-06T18:58:54.867Z,61.00
2018-03-06T19:04:51.140Z,60.70
2018-03-06T19:07:19.587Z,64.18
2018-03-06T19:09:46.998Z,56.85
2018-03-06T19:12:15.301Z,64.28
2018-03-06T19:14:43.730Z,63.92
2018-03-06T19:17:11.891Z,57.25
2018-03-06T19:19:40.377Z,63.83
2018-03-06T19:22:07.818Z,61.70
2018-03-06T19:24:35.646Z,61.97
2018-03-06T19:27:05.523Z,60.70
2018-03-06T19:29:34.741Z,63.45
2018-03-06T19:32:01.671Z,54.95
2018-03-06T19:34:31.106Z,60.47
2018-03-06T19:37:00.050Z,63.08
2018-03-06T19:39:26.595Z,62.70
2018-03-06T19:41:53.293Z,53.83
2018-03-06T19:44:19.924Z,66.68
2018-03-06T19:46:46.438Z,63.25
2018-03-06T19:49:13.045Z,67.78
2018-03-06T19:51:40.861Z,67.97
2018-03-06T19:54:07.405Z,65.05
2018-03-06T19:56:34.010Z,70.28
2018-03-06T19:59:00.657Z,64.00
2018-03-06T20:01:27.199Z,65.12
2018-03-06T20:03:54.802Z,63.60
2018-03-06T20:06:21.771Z,59.53
2018-03-06T20:08:48.314Z,64.80
2018-03-06T20:11:14.885Z,60.55
2018-03-06T20:13:41.589Z,56.88
2018-03-06T20:16:08.677Z,57.88
2018-03-06T20:18:35.249Z,53.67
2018-03-06T20:21:01.829Z,54.28
2018-03-06T20:23:28.481Z,53.58
2018-03-06T20:25:59.471Z,54.72
2018-03-06T20:28:26.473Z,54.80
2018-03-06T20:31:00.097Z,52.42
2018-03-06T20:33:28.637Z,50.20
2018-03-06T20:35:55.253Z,48.38
2018-03-06T20:38:28.821Z,54.90
2018-03-06T20:40:56.315Z,50.70
2018-03-06T20:43:22.861Z,51.42
2018-03-06T20:45:55.441Z,55.72
2018-03-06T20:48:22.039Z,59.15
2018-03-06T20:50:48.997Z,57.10
2018-03-06T20:53:22.094Z,55.15
2018-03-06T20:55:49.109Z,55.83
2018-03-06T20:58:16.131Z,55.65
2018-03-06T21:00:42.725Z,52.97
2018-03-06T21:03:09.302Z,54.40
2018-03-06T21:05:36.226Z,54.30
2018-03-06T21:08:02.877Z,54.30
2018-03-06T21:10:29.497Z,55.10
2018-03-06T21:12:56.037Z,53.50
2018-03-06T21:15:22.601Z,47.85
2018-03-06T21:17:49.191Z,56.42
2018-03-06T21:20:17.304Z,48.80
2018-03-06T21:22:44.753Z,52.70
2018-03-06T21:25:13.612Z,56.65
2018-03-06T21:27:42.795Z,51.60
2018-03-06T21:30:11.929Z,50.28
2018-03-06T21:32:41.886Z,48.42
2018-03-06T21:35:09.304Z,51.42
2018-03-06T21:37:39.476Z,46.85
2018-03-06T21:40:08.495Z,52.15
2018-03-06T21:42:37.447Z,47.88
2018-03-06T21:45:04.819Z,56.37
2018-03-06T21:47:35.909Z,56.70
2018-03-06T21:50:02.845Z,50.03
2018-03-06T21:52:32.284Z,47.88
2018-03-06T21:55:02.026Z,47.78
2018-03-06T21:57:32.727Z,44.35
2018-03-06T22:00:00.072Z,48.15
2018-03-06T22:02:27.055Z,41.25
2018-03-06T22:04:53.803Z,46.63
2018-03-06T22:07:20.709Z,45.85
2018-03-06T22:09:47.721Z,45.10
2018-03-06T22:12:15.004Z,43.55
2018-03-06T22:14:42.431Z,44.47
2018-03-06T22:17:10.052Z,43.15
2018-03-06T22:19:38.547Z,42.80
2018-03-06T22:22:08.700Z,40.95
2018-03-06T22:24:38.190Z,40.90
2018-03-06T22:27:06.445Z,39.13
2018-03-06T22:29:35.896Z,38.75
2018-03-06T22:32:03.773Z,36.10
2018-03-06T22:34:31.994Z,35.42
2018-03-06T22:37:02.035Z,34.15
2018-03-06T22:39:31.190Z,31.50
2018-03-06T22:41:59.609Z,29.92
2018-03-06T22:44:27.896Z,30.95
2018-03-06T22:46:55.424Z,30.40
2018-03-06T22:49:23.213Z,31.25
2018-03-06T22:51:51.680Z,28.67
2018-03-06T22:54:20.219Z,29.40
2018-03-06T22:56:52.070Z,26.15
2018-03-06T22:59:19.857Z,28.05
2018-03-06T23:01:47.955Z,26.52
2018-03-06T23:04:17.255Z,24.20
2018-03-06T23:06:44.725Z,23.90
2018-03-06T23:09:13.331Z,24.35
2018-03-06T23:11:40.712Z,24.00
2018-03-06T23:14:09.716Z,22.25
2018-03-06T23:16:37.275Z,22.35
2018-03-06T23:19:05.647Z,22.17
2018-03-06T23:21:34.756Z,22.75
2018-03-06T23:24:04.040Z,23.33
2018-03-06T23:26:32.873Z,22.90
2018-03-06T23:29:01.706Z,20.95
2018-03-06T23:31:29.147Z,21.85
2018-03-06T23:34:01.266Z,21.00
2018-03-06T23:36:31.671Z,20.60
2018-03-06T23:39:00.555Z,18.48
2018-03-06T23:41:30.884Z,19.27
2018-03-06T23:43:58.885Z,17.52
2018-03-06T23:46:28.386Z,20.95
2018-03-06T23:48:57.653Z,20.90
2018-03-06T23:51:26.618Z,20.65
2018-03-06T23:53:56.118Z,19.90
2018-03-06T23:56:24.729Z,22.40
2018-03-06T23:58:53.015Z,20.17
